createdAt,value
2018-09-10T00:00:09.029Z,16.92
2018-09-10T00:02:40.747Z,16.94
2018-09-10T00:05:09.846Z,16.98
2018-09-10T00:07:38.898Z,17.03
2018-09-10T00:10:08.065Z,17.05
2018-09-10T00:12:37.192Z,17.04
2018-09-10T00:15:06.432Z,17.02
2018-09-10T00:17:35.564Z,17.04
2018-09-10T00:20:04.681Z,17.08
2018-09-10T00:22:33.881Z,17.07
2018-09-10T00:25:02.942Z,17.09
2018-09-10T00:27:31.971Z,17.10
2018-09-10T00:30:01.564Z,17.14
2018-09-10T00:32:30.834Z,17.15
2018-09-10T00:34:59.950Z,17.16
2018-09-10T00:37:29.043Z,17.17
2018-09-10T00:39:58.057Z,17.17
2018-09-10T00:42:27.829Z,17.17
2018-09-10T00:44:57.327Z,17.14
2018-09-10T00:47:26.371Z,17.15
2018-09-10T00:49:55.466Z,17.15
2018-09-10T00:52:24.524Z,17.10
2018-09-10T00:54:53.664Z,17.07
2018-09-10T00:57:22.755Z,17.05
2018-09-10T00:59:51.831Z,17.02
2018-09-10T01:02:21.054Z,17.01
2018-09-10T01:04:51.265Z,17.03
2018-09-10T01:07:20.311Z,17.04
2018-09-10T01:09:49.501Z,17.07
2018-09-10T01:12:18.579Z,17.10
2018-09-10T01:14:47.657Z,17.11
2018-09-10T01:17:16.745Z,17.14
2018-09-10T01:19:45.816Z,17.12
2018-09-10T01:22:16.166Z,17.09
2018-09-10T01:24:45.204Z,17.10
2018-09-10T01:27:14.274Z,17.12
2018-09-10T01:29:43.328Z,17.11
2018-09-10T01:32:12.347Z,17.12
2018-09-10T01:34:46.536Z,17.13
2018-09-10T01:37:15.730Z,17.12
2018-09-10T01:39:44.770Z,17.12
2018-09-10T01:42:15.158Z,17.11
2018-09-10T01:44:44.236Z,17.10
2018-09-10T01:47:13.287Z,17.10
2018-09-10T01:49:42.376Z,17.07
2018-09-10T01:52:11.376Z,17.07
2018-09-10T01:54:40.419Z,17.04
2018-09-10T01:57:09.467Z,17.01
2018-09-10T01:59:38.534Z,16.98
2018-09-10T02:02:07.650Z,16.93
2018-09-10T02:04:36.766Z,16.89
2018-09-10T02:07:06.633Z,16.86
2018-09-10T02:09:36.740Z,16.84
2018-09-10T02:12:07.539Z,16.85
2018-09-10T02:14:36.572Z,16.83
2018-09-10T02:17:06.147Z,16.82
2018-09-10T02:19:35.329Z,16.78
2018-09-10T02:22:04.521Z,16.73
2018-09-10T02:24:33.623Z,16.71
2018-09-10T02:27:02.644Z,16.69
2018-09-10T02:29:31.715Z,16.71
2018-09-10T02:32:00.803Z,16.73
2018-09-10T02:34:29.874Z,16.75
2018-09-10T02:36:58.997Z,16.77
2018-09-10T02:39:28.276Z,16.81
2018-09-10T02:41:58.343Z,16.83
2018-09-10T02:44:27.369Z,16.83
2018-09-10T02:46:57.298Z,16.85
2018-09-10T02:49:26.328Z,16.86
2018-09-10T02:51:55.338Z,16.88
2018-09-10T02:54:24.641Z,16.86
2018-09-10T02:56:53.765Z,16.85
2018-09-10T02:59:22.822Z,16.85
2018-09-10T03:01:51.838Z,16.84
2018-09-10T03:04:22.101Z,16.83
2018-09-10T03:06:51.110Z,16.81
2018-09-10T03:09:20.199Z,16.79
2018-09-10T03:11:49.193Z,16.77
2018-09-10T03:14:18.355Z,16.77
2018-09-10T03:16:48.271Z,16.75
2018-09-10T03:19:17.400Z,16.73
2018-09-10T03:21:46.498Z,16.70
2018-09-10T03:24:15.671Z,16.70
2018-09-10T03:26:44.709Z,16.71
2018-09-10T03:29:13.829Z,16.73
2018-09-10T03:31:42.861Z,16.73
2018-09-10T03:34:11.974Z,16.70
2018-09-10T03:36:41.025Z,16.67
2018-09-10T03:39:11.013Z,16.63
2018-09-10T03:41:40.465Z,16.61
2018-09-10T03:44:09.556Z,16.61
2018-09-10T03:46:38.588Z,16.61
2018-09-10T03:49:07.615Z,16.61
2018-09-10T03:51:37.596Z,16.62
2018-09-10T03:54:06.624Z,16.65
2018-09-10T03:56:35.670Z,16.66
2018-09-10T03:59:04.689Z,16.69
2018-09-10T04:01:33.751Z,16.71
2018-09-10T04:04:02.844Z,16.72
2018-09-10T04:06:32.143Z,16.73
2018-09-10T04:09:01.165Z,16.75
2018-09-10T04:11:30.337Z,16.71
2018-09-10T04:13:59.353Z,16.75
2018-09-10T04:16:28.409Z,16.73
2018-09-10T04:18:57.575Z,16.73
2018-09-10T04:21:26.696Z,16.72
2018-09-10T04:23:55.832Z,16.73
2018-09-10T04:26:24.894Z,16.73
2018-09-10T04:28:53.932Z,16.71
2018-09-10T04:31:23.018Z,16.69
2018-09-10T04:33:52.304Z,16.62
2018-09-10T04:36:21.365Z,16.60
2018-09-10T04:38:50.602Z,16.67
2018-09-10T04:41:19.713Z,16.71
2018-09-10T04:43:48.749Z,16.71
2018-09-10T04:46:19.662Z,16.68
2018-09-10T04:48:48.698Z,16.66
2018-09-10T04:51:17.826Z,16.63
2018-09-10T04:53:48.248Z,16.63
2018-09-10T04:56:18.150Z,16.59
2018-09-10T04:58:47.174Z,16.58
2018-09-10T05:01:17.273Z,16.58
2018-09-10T05:03:46.949Z,16.57
2018-09-10T05:06:15.996Z,16.54
2018-09-10T05:08:45.191Z,16.52
2018-09-10T05:11:14.972Z,16.50
2018-09-10T05:13:43.977Z,16.48
2018-09-10T05:16:13.100Z,16.46
2018-09-10T05:18:42.853Z,16.46
2018-09-10T05:21:12.083Z,16.46
2018-09-10T05:23:42.739Z,16.45
2018-09-10T05:26:11.780Z,16.42
2018-09-10T05:28:40.859Z,16.42
2018-09-10T05:31:09.879Z,16.38
2018-09-10T05:33:38.995Z,16.36
2018-09-10T05:36:08.017Z,16.34
2018-09-10T05:38:37.121Z,16.31
2018-09-10T05:41:06.191Z,16.28
2018-09-10T05:43:35.272Z,16.25
2018-09-10T05:46:04.383Z,16.23
2018-09-10T05:48:34.402Z,16.21
2018-09-10T05:51:03.740Z,16.21
2018-09-10T05:53:32.810Z,16.20
2018-09-10T05:56:02.605Z,16.19
2018-09-10T05:58:33.804Z,16.19
2018-09-10T06:01:03.596Z,16.20
2018-09-10T06:03:32.865Z,16.23
2018-09-10T06:06:02.715Z,16.22
2018-09-10T06:08:32.118Z,16.27
2018-09-10T06:11:02.143Z,16.29
2018-09-10T06:13:31.129Z,16.32
2018-09-10T06:16:03.150Z,16.38
2018-09-10T06:18:32.316Z,16.41
2018-09-10T06:21:01.399Z,16.45
2018-09-10T06:23:31.288Z,16.48
2018-09-10T06:26:00.996Z,16.52
2018-09-10T06:28:30.074Z,16.56
2018-09-10T06:30:59.418Z,16.59
2018-09-10T06:33:29.224Z,16.64
2018-09-10T06:35:58.560Z,16.66
2018-09-10T06:38:40.888Z,16.70
2018-09-10T06:41:39.761Z,16.70
2018-09-10T06:44:21.867Z,16.64
2018-09-10T06:47:06.092Z,16.58
2018-09-10T06:50:01.040Z,16.58
2018-09-10T06:52:32.358Z,16.57
2018-09-10T06:55:08.519Z,16.54
2018-09-10T06:57:47.430Z,16.54
2018-09-10T07:00:33.243Z,16.55
2018-09-10T07:03:09.928Z,16.53
2018-09-10T07:05:51.197Z,16.55
2018-09-10T07:08:27.051Z,16.62
2018-09-10T07:11:03.105Z,16.74
2018-09-10T07:13:42.581Z,16.85
2018-09-10T07:16:21.431Z,16.96
2018-09-10T07:18:56.469Z,17.04
2018-09-10T07:21:36.014Z,17.09
2018-09-10T07:24:13.769Z,17.17
2018-09-10T07:27:03.363Z,17.24
2018-09-10T07:29:32.452Z,17.37
2018-09-10T07:32:02.549Z,17.47
2018-09-10T07:34:31.697Z,17.49
2018-09-10T07:37:02.564Z,17.45
2018-09-10T07:39:38.383Z,17.40
2018-09-10T07:42:16.735Z,17.32
2018-09-10T07:44:45.775Z,17.30
2018-09-10T07:47:15.746Z,17.35
2018-09-10T07:49:45.056Z,17.41
2018-09-10T07:52:16.865Z,17.43
2018-09-10T07:54:47.465Z,17.44
2018-09-10T07:57:19.069Z,17.44
2018-09-10T07:59:48.355Z,17.43
2018-09-10T08:02:17.694Z,17.39
2018-09-10T08:04:46.837Z,17.38
2018-09-10T08:07:16.017Z,17.36
2018-09-10T08:09:45.536Z,17.35
2018-09-10T08:12:14.747Z,17.36
2018-09-10T08:14:43.945Z,17.38
2018-09-10T08:17:16.426Z,17.42
2018-09-10T08:19:45.692Z,17.45
2018-09-10T08:22:14.806Z,17.51
2018-09-10T08:24:43.953Z,17.55
2018-09-10T08:27:13.635Z,17.65
2018-09-10T08:29:42.761Z,17.76
2018-09-10T08:32:12.364Z,17.89
2018-09-10T08:34:41.486Z,18.02
2018-09-10T08:37:10.558Z,18.09
2018-09-10T08:39:39.717Z,18.16
2018-09-10T08:42:09.300Z,18.19
2018-09-10T08:44:38.991Z,18.29
2018-09-10T08:47:08.109Z,18.41
2018-09-10T08:49:37.662Z,18.50
2018-09-10T08:52:06.799Z,18.54
2018-09-10T08:54:36.287Z,18.55
2018-09-10T08:57:06.074Z,18.55
2018-09-10T08:59:36.023Z,18.56
2018-09-10T09:02:06.127Z,18.56
2018-09-10T09:04:36.211Z,18.60
2018-09-10T09:07:13.177Z,18.69
2018-09-10T09:09:48.423Z,18.82
2018-09-10T09:12:17.741Z,18.96
2018-09-10T09:14:46.801Z,19.07
2018-09-10T09:17:15.979Z,19.13
2018-09-10T09:22:29.088Z,19.25
2018-09-10T09:24:59.930Z,19.29
2018-09-10T09:27:37.183Z,19.36
2018-09-10T09:30:12.116Z,19.43
2018-09-10T09:32:41.197Z,19.49
2018-09-10T09:35:10.654Z,19.53
2018-09-10T09:37:44.771Z,19.55
2018-09-10T09:41:17.475Z,19.57
2018-09-10T09:43:58.422Z,19.59
2018-09-10T09:46:28.672Z,19.54
2018-09-10T09:48:58.280Z,19.48
2018-09-10T09:51:27.346Z,19.46
2018-09-10T09:53:56.752Z,19.45
2018-09-10T09:56:25.824Z,19.44
2018-09-10T09:58:54.903Z,19.44
2018-09-10T10:01:28.042Z,19.44
2018-09-10T10:04:07.646Z,19.45
2018-09-10T10:06:38.046Z,19.46
2018-09-10T10:09:11.419Z,19.44
2018-09-10T10:11:41.086Z,19.42
2018-09-10T10:14:11.258Z,19.40
2018-09-10T10:16:40.460Z,19.39
2018-09-10T10:19:10.343Z,19.39
2018-09-10T10:21:39.402Z,19.42
2018-09-10T10:24:08.820Z,19.43
2018-09-10T10:26:38.196Z,19.45
2018-09-10T10:29:08.206Z,19.48
2018-09-10T10:31:38.064Z,19.50
2018-09-10T10:34:07.169Z,19.51
2018-09-10T10:36:37.188Z,19.51
2018-09-10T10:39:08.450Z,19.53
2018-09-10T10:41:37.640Z,19.57
2018-09-10T10:44:06.781Z,19.63
2018-09-10T10:46:38.112Z,19.72
2018-09-10T10:49:07.352Z,19.79
2018-09-10T10:51:36.581Z,19.82
2018-09-10T10:54:05.733Z,19.82
2018-09-10T10:56:34.902Z,19.83
2018-09-10T10:59:05.021Z,19.83
2018-09-10T11:01:34.479Z,19.81
2018-09-10T11:04:06.527Z,19.81
2018-09-10T11:06:44.506Z,19.82
2018-09-10T11:09:13.776Z,19.83
2018-09-10T11:11:42.881Z,19.85
2018-09-10T11:14:13.361Z,19.91
2018-09-10T11:16:42.658Z,19.93
2018-09-10T11:19:11.861Z,19.95
2018-09-10T11:21:42.084Z,19.95
2018-09-10T11:24:11.434Z,19.97
2018-09-10T11:26:40.565Z,19.97
2018-09-10T11:29:09.715Z,19.96
2018-09-10T11:31:39.893Z,19.98
2018-09-10T11:34:09.000Z,20.00
2018-09-10T11:37:08.854Z,20.07
2018-09-10T11:39:38.207Z,20.16
2018-09-10T11:42:07.299Z,20.23
2018-09-10T11:44:36.982Z,20.25
2018-09-10T11:47:06.448Z,20.25
2018-09-10T11:49:35.590Z,20.22
2018-09-10T11:52:04.770Z,20.21
2018-09-10T11:54:34.898Z,20.21
2018-09-10T11:57:04.242Z,20.23
2018-09-10T11:59:33.460Z,20.24
2018-09-10T12:02:05.309Z,20.22
2018-09-10T12:04:34.447Z,20.23
2018-09-10T12:07:03.642Z,20.25
2018-09-10T12:09:39.155Z,20.31
2018-09-10T12:12:11.009Z,20.34
2018-09-10T12:14:40.768Z,20.36
2018-09-10T12:17:09.905Z,20.39
2018-09-10T12:19:46.397Z,20.39
2018-09-10T12:22:15.567Z,20.38
2018-09-10T12:24:44.697Z,20.38
2018-09-10T12:27:14.990Z,20.37
2018-09-10T12:29:44.120Z,20.36
2018-09-10T12:32:15.017Z,20.36
2018-09-10T12:34:44.649Z,20.37
2018-09-10T12:37:13.988Z,20.39
2018-09-10T12:39:43.324Z,20.43
2018-09-10T12:42:12.420Z,20.43
2018-09-10T12:44:44.714Z,20.42
2018-09-10T12:47:14.028Z,20.39
2018-09-10T12:49:43.060Z,20.34
2018-09-10T12:52:12.159Z,20.35
2018-09-10T12:54:41.244Z,20.38
2018-09-10T12:57:11.356Z,20.41
2018-09-10T12:59:40.785Z,20.45
2018-09-10T13:02:15.392Z,20.48
2018-09-10T13:04:52.680Z,20.52
2018-09-10T13:07:21.753Z,20.55
2018-09-10T13:09:53.783Z,20.57
2018-09-10T13:12:22.951Z,20.62
2018-09-10T13:14:57.220Z,20.64
2018-09-10T13:17:28.036Z,20.64
2018-09-10T13:19:57.264Z,20.63
2018-09-10T13:22:29.813Z,20.63
2018-09-10T13:25:00.189Z,20.61
2018-09-10T13:27:29.358Z,20.62
2018-09-10T13:29:59.654Z,20.63
2018-09-10T13:32:29.020Z,20.61
2018-09-10T13:34:58.263Z,20.60
2018-09-10T13:37:27.411Z,20.61
2018-09-10T13:39:56.727Z,20.61
2018-09-10T13:42:25.942Z,20.62
2018-09-10T13:44:55.039Z,20.56
2018-09-10T13:47:24.402Z,20.52
2018-09-10T13:50:11.258Z,20.49
2018-09-10T13:52:40.636Z,20.47
2018-09-10T13:55:09.815Z,20.44
2018-09-10T13:57:38.987Z,20.41
2018-09-10T14:00:08.818Z,20.38
2018-09-10T14:02:38.252Z,20.33
2018-09-10T14:05:07.776Z,20.29
2018-09-10T14:07:38.392Z,20.25
2018-09-10T14:10:07.632Z,20.22
2018-09-10T14:12:36.947Z,20.17
2018-09-10T14:15:07.433Z,20.15
2018-09-10T14:17:36.659Z,20.17
2018-09-10T14:20:06.216Z,20.23
2018-09-10T14:22:35.366Z,20.26
2018-09-10T14:25:05.430Z,20.30
2018-09-10T14:27:34.729Z,20.31
2018-09-10T14:30:05.260Z,20.31
2018-09-10T14:32:34.492Z,20.31
2018-09-10T14:35:03.803Z,20.28
2018-09-10T14:37:32.930Z,20.27
2018-09-10T14:40:02.890Z,20.24
2018-09-10T14:42:32.607Z,20.21
2018-09-10T14:45:03.382Z,20.19
2018-09-10T14:47:32.588Z,20.20
2018-09-10T14:50:02.694Z,20.21
2018-09-10T14:52:32.206Z,20.23
2018-09-10T14:55:02.389Z,20.22
2018-09-10T14:57:32.253Z,20.18
2018-09-10T15:00:01.618Z,20.16
2018-09-10T15:02:32.097Z,20.14
2018-09-10T15:05:01.833Z,20.12
2018-09-10T15:07:31.009Z,20.11
2018-09-10T15:10:00.176Z,20.09
2018-09-10T15:12:29.502Z,20.08
2018-09-10T15:14:58.591Z,20.06
2018-09-10T15:17:27.771Z,20.03
2018-09-10T15:26:04.629Z,19.95
2018-09-10T15:28:46.827Z,19.96
2018-09-10T15:31:16.276Z,19.96
2018-09-10T15:33:45.347Z,19.97
2018-09-10T15:36:14.971Z,19.98
2018-09-10T15:38:44.109Z,19.99
2018-09-10T15:41:49.901Z,19.99
2018-09-10T15:44:21.566Z,19.96
2018-09-10T15:46:54.491Z,19.94
2018-09-10T15:49:23.670Z,19.91
2018-09-10T15:51:53.001Z,19.88
2018-09-10T15:54:24.664Z,19.85
2018-09-10T15:56:54.661Z,19.84
2018-09-10T15:59:23.954Z,19.81
2018-09-10T16:01:53.167Z,19.77
2018-09-10T16:04:22.420Z,19.74
2018-09-10T16:06:51.664Z,19.74
2018-09-10T16:09:22.424Z,19.73
2018-09-10T16:11:52.724Z,19.73
2018-09-10T16:14:23.193Z,19.72
2018-09-10T16:16:52.385Z,19.70
2018-09-10T16:19:21.521Z,19.71
2018-09-10T16:21:50.890Z,19.70
2018-09-10T16:24:23.137Z,19.69
2018-09-10T16:26:52.609Z,19.67
2018-09-10T16:29:22.291Z,19.66
2018-09-10T16:31:51.474Z,19.64
2018-09-10T16:34:20.670Z,19.60
2018-09-10T16:36:49.709Z,19.58
2018-09-10T16:39:18.886Z,19.56
2018-09-10T16:41:48.733Z,19.53
2018-09-10T16:44:17.873Z,19.50
2018-09-10T16:46:47.162Z,19.48
2018-09-10T16:49:16.257Z,19.47
2018-09-10T16:51:45.353Z,19.47
2018-09-10T16:54:14.613Z,19.46
2018-09-10T16:56:43.845Z,19.45
2018-09-10T16:59:13.384Z,19.44
2018-09-10T17:01:44.444Z,19.43
2018-09-10T17:04:13.468Z,19.38
2018-09-10T17:06:42.490Z,19.34
2018-09-10T17:09:12.460Z,19.33
2018-09-10T17:11:41.539Z,19.32
2018-09-10T17:14:10.610Z,19.30
2018-09-10T17:16:39.632Z,19.29
2018-09-10T17:19:08.653Z,19.29
2018-09-10T17:21:37.728Z,19.30
2018-09-10T17:24:06.868Z,19.31
2018-09-10T17:26:35.895Z,19.31
2018-09-10T17:29:05.140Z,19.28
2018-09-10T17:31:34.148Z,19.27
2018-09-10T17:34:08.254Z,19.25
2018-09-10T17:36:37.499Z,19.26
2018-09-10T17:39:08.188Z,19.28
2018-09-10T17:41:37.405Z,19.29
2018-09-10T17:44:06.717Z,19.28
2018-09-10T17:46:35.796Z,19.29
2018-09-10T17:49:04.890Z,19.30
2018-09-10T17:51:34.270Z,19.29
2018-09-10T17:54:03.597Z,19.27
2018-09-10T17:56:32.796Z,19.27
2018-09-10T17:59:01.920Z,19.30
2018-09-10T18:01:31.174Z,19.32
2018-09-10T18:04:00.328Z,19.33
2018-09-10T18:06:29.384Z,19.32
2018-09-10T18:08:58.416Z,19.31
2018-09-10T18:11:28.357Z,19.28
2018-09-10T18:16:55.744Z,19.20
2018-09-10T18:19:25.000Z,19.15
2018-09-10T18:21:54.060Z,19.12
2018-09-10T18:24:23.126Z,19.13
2018-09-10T18:26:52.143Z,19.11
2018-09-10T18:29:21.208Z,19.11
2018-09-10T18:31:50.241Z,19.10
2018-09-10T18:34:19.364Z,19.09
2018-09-10T18:36:48.423Z,19.08
2018-09-10T18:39:17.519Z,19.07
2018-09-10T18:41:46.504Z,19.07
2018-09-10T18:44:15.584Z,19.08
2018-09-10T18:46:44.650Z,19.09
2018-09-10T18:49:13.696Z,19.09
2018-09-10T18:51:45.961Z,19.09
2018-09-10T18:54:15.912Z,19.07
2018-09-10T18:56:45.081Z,19.07
2018-09-10T18:59:14.118Z,19.05
2018-09-10T19:01:43.196Z,19.04
2018-09-10T19:04:12.265Z,19.03
2018-09-10T19:06:41.367Z,19.05
2018-09-10T19:09:11.817Z,19.07
2018-09-10T19:11:40.989Z,19.07
2018-09-10T19:14:10.106Z,19.06
2018-09-10T19:16:39.961Z,19.05
2018-09-10T19:19:09.555Z,19.03
2018-09-10T19:21:40.382Z,19.04
2018-09-10T19:24:09.372Z,19.04
2018-09-10T19:26:38.528Z,19.02
2018-09-10T19:29:07.610Z,19.02
2018-09-10T19:31:37.211Z,19.01
2018-09-10T19:34:06.289Z,19.00
2018-09-10T19:36:35.361Z,18.98
2018-09-10T19:39:05.246Z,18.96
2018-09-10T19:41:34.292Z,18.95
2018-09-10T19:44:04.590Z,18.94
2018-09-10T19:46:33.656Z,18.94
2018-09-10T19:49:02.883Z,18.93
2018-09-10T19:51:32.036Z,18.94
2018-09-10T19:54:01.833Z,18.96
2018-09-10T19:56:30.857Z,18.95
2018-09-10T19:59:06.425Z,18.94
2018-09-10T20:01:35.514Z,18.92
2018-09-10T20:04:06.044Z,18.89
2018-09-10T20:06:35.159Z,18.86
2018-09-10T20:09:05.117Z,18.87
2018-09-10T20:11:34.683Z,18.86
2018-09-10T20:14:03.846Z,18.84
2018-09-10T20:16:32.941Z,18.84
2018-09-10T20:19:02.178Z,18.84
2018-09-10T20:21:31.785Z,18.85
2018-09-10T20:24:00.863Z,18.85
2018-09-10T20:26:29.900Z,18.82
2018-09-10T20:28:58.990Z,18.78
2018-09-10T20:31:27.982Z,18.78
2018-09-10T20:34:02.016Z,18.80
2018-09-10T20:36:31.302Z,18.82
2018-09-10T20:39:00.356Z,18.85
2018-09-10T20:41:29.631Z,18.90
2018-09-10T20:43:58.724Z,18.92
2018-09-10T20:46:28.056Z,18.93
2018-09-10T20:48:57.226Z,18.92
2018-09-10T20:51:26.306Z,18.94
2018-09-10T20:53:55.381Z,18.94
2018-09-10T20:56:24.667Z,18.90
2018-09-10T20:58:53.761Z,18.88
2018-09-10T21:01:22.914Z,18.85
2018-09-10T21:03:52.258Z,18.85
2018-09-10T21:06:21.341Z,18.84
2018-09-10T21:08:50.405Z,18.86
2018-09-10T21:11:20.311Z,18.88
2018-09-10T21:13:49.341Z,18.89
2018-09-10T21:16:18.409Z,18.89
2018-09-10T21:18:47.682Z,18.87
2018-09-10T21:21:16.727Z,18.86
2018-09-10T21:23:45.780Z,18.86
2018-09-10T21:26:14.900Z,18.86
2018-09-10T21:28:43.920Z,18.87
2018-09-10T21:31:13.058Z,18.88
2018-09-10T21:33:42.183Z,18.91
2018-09-10T21:36:11.204Z,18.88
2018-09-10T21:38:40.397Z,18.87
2018-09-10T21:41:09.461Z,18.84
2018-09-10T21:43:39.102Z,18.83
2018-09-10T21:46:08.322Z,18.83
2018-09-10T21:48:37.448Z,18.83
2018-09-10T21:51:06.467Z,18.80
2018-09-10T21:53:35.565Z,18.79
2018-09-10T21:56:04.683Z,18.76
2018-09-10T21:58:33.813Z,18.75
2018-09-10T22:01:02.950Z,18.77
2018-09-10T22:03:32.195Z,18.78
2018-09-10T22:06:01.228Z,18.76
2018-09-10T22:08:30.436Z,18.73
2018-09-10T22:10:59.491Z,18.73
2018-09-10T22:13:29.485Z,18.73
2018-09-10T22:15:58.536Z,18.72
2018-09-10T22:18:42.798Z,18.72
2018-09-10T22:21:21.201Z,18.70
2018-09-10T22:24:03.610Z,18.69
2018-09-10T22:26:32.900Z,18.71
2018-09-10T22:29:17.394Z,18.74
2018-09-10T22:32:02.968Z,18.72
2018-09-10T22:34:47.059Z,18.72
2018-09-10T22:37:31.194Z,18.72
2018-09-10T22:40:07.497Z,18.67
2018-09-10T22:42:40.101Z,18.65
2018-09-10T22:45:27.808Z,18.61
2018-09-10T22:48:15.596Z,18.58
2018-09-10T22:50:48.129Z,18.55
2018-09-10T22:53:21.259Z,18.54
2018-09-10T22:56:05.218Z,18.52
2018-09-10T22:58:45.821Z,18.51
2018-09-10T23:01:30.050Z,18.49
2018-09-10T23:04:14.928Z,18.47
2018-09-10T23:07:01.942Z,18.48
2018-09-10T23:09:47.518Z,18.49
2018-09-10T23:12:35.489Z,18.49
2018-09-10T23:15:06.290Z,18.46
2018-09-10T23:17:35.391Z,18.46
2018-09-10T23:20:04.752Z,18.44
2018-09-10T23:22:33.803Z,18.42
2018-09-10T23:25:03.097Z,18.40
2018-09-10T23:27:32.208Z,18.39
2018-09-10T23:30:01.516Z,18.42
2018-09-10T23:32:30.533Z,18.46
2018-09-10T23:34:59.611Z,18.48
2018-09-10T23:37:28.618Z,18.52
2018-09-10T23:39:58.445Z,18.54
2018-09-10T23:42:27.517Z,18.55
2018-09-10T23:44:56.806Z,18.57
2018-09-10T23:47:25.804Z,18.56
2018-09-10T23:49:54.839Z,18.55
2018-09-10T23:52:23.916Z,18.54
2018-09-10T23:54:53.889Z,18.51
2018-09-10T23:57:22.884Z,18.50
2018-09-10T23:59:51.922Z,18.50
